Monday, April 24, 2017, 9:49 PM CDT
Back to Local

KMDW, Chicago Midway Airport

Location: Chicago, IL, United States Lat: 41.783
Local Time: 9:49 PM CDT ( 2:49 GMT) Lon: -87.75
Time Zone: US/Central Elev: 620 ft

Show me the last for .
Show Coded

Time T Td Feel RH Dir Speed Gust Alt SLP Vis Weather Sky Remarks
2017-04-24 20:53 59 37 - 43 100° 9 - 29.77 29.76 10 SCT250 None
2017-04-24 19:53 61 34 - 36 80° 10 - 29.78 29.77 10 BKN250 None
2017-04-24 18:53 66 31 - 26 80° 9 - 29.79 29.79 10 BKN250 6-hr Min Temp (7pm): 66.0°F
6-hr Max Temp (7pm): 72.0°F
2017-04-24 17:53 68 31 - 25 60° 10 - 29.81 29.80 10 BKN250 None
2017-04-24 16:53 70 32 - 24 80° 13 - 29.83 29.82 10 BKN250 None
2017-04-24 15:53 71 33 - 24 90° 12 - 29.85 29.84 10 BKN250 None
2017-04-24 14:53 71 34 - 25 80° 13 - 29.88 29.88 10 BKN250 None
2017-04-24 13:53 71 34 - 25 110° 13 17 29.92 29.91 10 BKN250 None
2017-04-24 12:53 70 36 - 28 110° 7 - 29.94 29.93 10 BKN250 6-hr Min Temp (1pm): 45.0°F
6-hr Max Temp (1pm): 70.0°F
2017-04-24 11:53 69 35 - 28 110° 14 - 29.97 29.96 10 BKN250 None
2017-04-24 10:53 66 33 - 29 90° 10 - 30.00 29.99 10 BKN250 None
2017-04-24 09:53 62 38 - 40 110° 10 - 30.01 30.01 10 BKN250 None
2017-04-24 08:53 56 42 - 59 110° 5 - 30.03 30.03 10 SCT250 None
2017-04-24 07:53 50 41 49 71 30° 3 - 30.03 30.03 10 FEW250 None
2017-04-24 06:53 45 40 - 82 - Calm - 30.03 30.03 10 FEW250 6-hr Min Temp (7am): 42.1°F
6-hr Max Temp (7am): 46.9°F
2017-04-24 05:53 43 39 41 85 40° 3 - 30.02 30.02 10 FEW250 None
2017-04-24 04:53 43 38 39 82 10° 6 - 30.02 30.02 10 FEW250 None
2017-04-24 03:53 44 39 42 82 20° 5 - 30.03 30.02 10 FEW250 None
2017-04-24 02:53 44 39 42 82 20° 5 - 30.01 30.01 10 SCT250 None
2017-04-24 01:53 45 39 41 79 30° 7 - 30.03 30.03 10 SCT250 None
2017-04-24 00:53 47 39 44 73 20° 6 - 30.04 30.03 10 BKN250 6-hr Min Temp (1am): 46.9°F
6-hr Max Temp (1am): 64.9°F
24-hr Min Temp (1am): 39.0°F
24-hr Max Temp (1am): 69.1°F
2017-04-23 23:53 49 39 47 68 20° 5 - 30.05 30.05 10 BKN250 None
2017-04-23 22:53 53 39 - 58 360° 8 - 30.04 30.03 10 BKN250 None
2017-04-23 21:53 60 25 - 25 70° 7 - 30.05 30.04 10 BKN250 None

Support USWX by starting your Amazon purchase here.